Flight Track Log - Related Links

Times and Time Zones

All times are in EST time to prevent confusion due to time zone crossing. See the DAL110 flight status page for this flight to view local times or setup timezone preferences in your user account.

Time Position Orientation Groundspeed Altitude Reporting Facility
EST Latitude Longitude Course Direction KTS MPH feet Rate Location/Type
Fri 07:35:00 PM -34.7077 -58.5827 339° North  Level FlightAware Approximate
Fri 07:36:00 PM -34.5919 -58.6365 339° North  Level FlightAware Approximate
Fri 07:37:00 PM -34.4761 -58.6901 339° North  Level FlightAware Approximate
Fri 07:38:00 PM -34.3602 -58.7436 339° North  Level FlightAware Approximate
Fri 07:39:00 PM -34.2444 -58.7969 339° North  Level FlightAware Approximate
Fri 07:40:00 PM -34.1285 -58.8501 339° North  Level FlightAware Approximate
Fri 07:41:00 PM -34.0126 -58.9031 339° North  Level FlightAware Approximate
Fri 07:42:00 PM -33.8966 -58.9560 339° North  Level FlightAware Approximate
Fri 07:43:00 PM -33.7781 -59.0101 339° North  Level FlightAware Approximate
Fri 07:44:00 PM -33.6624 -59.0635 339° North  Level FlightAware Approximate
Fri 07:45:00 PM -33.5467 -59.1168 339° North  Level FlightAware Approximate
Fri 07:46:00 PM -33.4309 -59.1699 339° North  Level FlightAware Approximate
Fri 07:47:00 PM -33.3151 -59.2229 339° North  Level FlightAware Approximate
Fri 07:48:00 PM -33.1993 -59.2758 339° North  Level FlightAware Approximate
Fri 07:49:00 PM -33.0835 -59.3285 339° North  Level FlightAware Approximate
Fri 07:50:00 PM -32.9676 -59.3810 339° North  Level FlightAware Approximate
Fri 07:51:00 PM -32.8517 -59.4335 339° North  Level FlightAware Approximate
Fri 07:52:00 PM -32.7358 -59.4858 339° North  Level FlightAware Approximate
Fri 07:53:00 PM -32.6199 -59.5379 339° North  Level FlightAware Approximate
Fri 07:54:00 PM -32.5039 -59.5899 339° North  Level FlightAware Approximate
Fri 07:55:00 PM -32.3880 -59.6418 339° North  Level FlightAware Approximate
Fri 07:56:00 PM -32.2720 -59.6936 339° North  Level FlightAware Approximate
Fri 07:57:00 PM -32.1560 -59.7452 339° North  Level FlightAware Approximate
Fri 07:58:00 PM -32.0399 -59.7967 339° North  Level FlightAware Approximate
Fri 07:59:00 PM -31.9239 -59.8481 339° North  Level FlightAware Approximate
Fri 08:00:00 PM -31.8078 -59.8993 339° North  Level FlightAware Approximate
Fri 08:01:00 PM -31.6917 -59.9504 339° North  Level FlightAware Approximate
Fri 08:02:00 PM -31.5756 -60.0014 339° North  Level FlightAware Approximate
Fri 08:03:00 PM -31.4595 -60.0522 340° North  Level FlightAware Approximate
Fri 08:04:00 PM -31.3429 -60.1031 340° North  Level FlightAware Approximate
Fri 08:05:00 PM -31.2264 -60.1539 340° North  Level FlightAware Approximate
Fri 08:06:00 PM -31.1098 -60.2045 340° North  Level FlightAware Approximate
Fri 08:07:00 PM -30.9932 -60.2551 340° North  Level FlightAware Approximate
Fri 08:08:00 PM -30.8765 -60.3055 340° North  Level FlightAware Approximate
Fri 08:09:00 PM -30.7599 -60.3557 340° North  Level FlightAware Approximate
Fri 08:10:00 PM -30.6432 -60.4059 340° North  Level FlightAware Approximate
Fri 08:11:00 PM -30.5265 -60.4559 340° North  Level FlightAware Approximate
Fri 08:12:00 PM -30.4098 -60.5058 340° North  Level FlightAware Approximate
Fri 08:13:00 PM -30.2931 -60.5556 340° North  Level FlightAware Approximate
Fri 08:14:00 PM -30.1764 -60.6053 340° North  Level FlightAware Approximate
Fri 08:15:00 PM -30.0596 -60.6548 340° North  Level FlightAware Approximate
Fri 08:16:00 PM -29.9428 -60.7043 340° North  Level FlightAware Approximate
Fri 08:17:00 PM -29.8260 -60.7536 340° North  Level FlightAware Approximate
Fri 08:18:00 PM -29.7092 -60.8028 340° North  Level FlightAware Approximate
Fri 08:19:00 PM -29.5924 -60.8519 340° North  Level FlightAware Approximate
Fri 08:20:00 PM -29.4755 -60.9009 340° North  Level FlightAware Approximate
Fri 08:21:00 PM -29.3587 -60.9497 340° North  Level FlightAware Approximate
Fri 08:22:00 PM -29.2418 -60.9985 340° North  Level FlightAware Approximate
Fri 08:23:00 PM -29.1249 -61.0471 340° North  Level FlightAware Approximate
Fri 08:24:00 PM -29.0079 -61.0957 340° North  Level FlightAware Approximate
Fri 08:25:00 PM -28.8910 -61.1441 340° North  Level FlightAware Approximate
Fri 08:26:00 PM -28.7740 -61.1924 340° North  Level FlightAware Approximate
Fri 08:27:00 PM -28.6571 -61.2406 340° North  Level FlightAware Approximate
Fri 08:28:00 PM -28.5401 -61.2887 340° North  Level FlightAware Approximate
Fri 08:29:00 PM -28.4231 -61.3367 340° North  Level FlightAware Approximate
Fri 08:30:00 PM -28.3061 -61.3846 340° North  Level FlightAware Approximate
Fri 08:31:00 PM -28.1890 -61.4324 340° North  Level FlightAware Approximate
Fri 08:32:00 PM -28.0720 -61.4801 340° North  Level FlightAware Approximate
Fri 08:33:00 PM -27.9549 -61.5276 340° North  Level FlightAware Approximate
Fri 08:34:00 PM -27.8378 -61.5751 340° North  Level FlightAware Approximate
Fri 08:35:00 PM -27.7207 -61.6225 340° North  Level FlightAware Approximate
Fri 08:36:00 PM -27.6036 -61.6697 340° North  Level FlightAware Approximate
Fri 08:37:00 PM -27.4864 -61.7169 340° North  Level FlightAware Approximate
Fri 08:38:00 PM -27.3693 -61.7640 340° North  Level FlightAware Approximate
Fri 08:39:00 PM -27.2521 -61.8110 340° North  Level FlightAware Approximate
Fri 08:40:00 PM -27.1349 -61.8578 340° North  Level FlightAware Approximate
Fri 08:41:00 PM -27.0177 -61.9046 340° North  Level FlightAware Approximate
Fri 08:42:00 PM -26.9005 -61.9513 340° North  Level FlightAware Approximate
Fri 08:43:00 PM -26.7833 -61.9978 340° North  Level FlightAware Approximate
Fri 08:44:00 PM -26.6660 -62.0443 340° North  Level FlightAware Approximate
Fri 08:45:00 PM -26.5488 -62.0907 341° North  Level FlightAware Approximate
Fri 08:46:00 PM -26.4315 -62.1370 341° North  Level FlightAware Approximate
Fri 08:47:00 PM -26.3142 -62.1832 341° North  Level FlightAware Approximate
Fri 08:48:00 PM -26.1969 -62.2293 341° North  Level FlightAware Approximate
Fri 08:49:00 PM -26.0796 -62.2753 341° North  Level FlightAware Approximate
Fri 08:50:00 PM -25.9622 -62.3212 341° North  Level FlightAware Approximate
Fri 08:51:00 PM -25.8449 -62.3670 341° North  Level FlightAware Approximate
Fri 08:52:00 PM -25.7275 -62.4128 341° North  Level FlightAware Approximate
Fri 08:53:00 PM -25.6101 -62.4584 341° North  Level FlightAware Approximate
Fri 08:54:00 PM -25.4927 -62.5039 341° North  Level FlightAware Approximate
Fri 08:55:00 PM -25.3753 -62.5494 341° North  Level FlightAware Approximate
Fri 08:56:00 PM -25.2579 -62.5948 341° North  Level FlightAware Approximate
Fri 08:57:00 PM -25.1405 -62.6401 341° North  Level FlightAware Approximate
Fri 08:58:00 PM -25.0230 -62.6853 341° North  Level FlightAware Approximate
Fri 08:59:00 PM -24.9056 -62.7304 341° North  Level FlightAware Approximate
Fri 09:00:00 PM -24.7881 -62.7754 341° North  Level FlightAware Approximate
Fri 09:01:00 PM -24.6706 -62.8204 341° North  Level FlightAware Approximate
Fri 09:02:00 PM -24.5531 -62.8652 341° North  Level FlightAware Approximate
Fri 09:03:00 PM -24.4356 -62.9100 341° North  Level FlightAware Approximate
Fri 09:04:00 PM -24.3180 -62.9547 341° North  Level FlightAware Approximate
Fri 09:05:00 PM -24.2005 -62.9993 341° North  Level FlightAware Approximate
Fri 09:06:00 PM -24.0829 -63.0438 341° North  Level FlightAware Approximate
Fri 09:07:00 PM -23.9654 -63.0883 341° North  Level FlightAware Approximate
Fri 09:08:00 PM -23.8478 -63.1326 341° North  Level FlightAware Approximate
Fri 09:09:00 PM -23.7302 -63.1769 341° North  Level FlightAware Approximate
Fri 09:10:00 PM -23.6126 -63.2211 341° North  Level FlightAware Approximate
Fri 09:11:00 PM -23.4950 -63.2653 341° North  Level FlightAware Approximate
Fri 09:12:00 PM -23.3773 -63.3093 341° North  Level FlightAware Approximate
Fri 09:13:00 PM -23.2597 -63.3533 341° North  Level FlightAware Approximate
Fri 09:14:00 PM -23.1420 -63.3972 341° North  Level FlightAware Approximate
Fri 09:15:00 PM -23.0244 -63.4410 341° North  Level FlightAware Approximate
Fri 09:16:00 PM -22.9067 -63.4847 341° North  Level FlightAware Approximate
Fri 09:17:00 PM -22.7890 -63.5284 341° North  Level FlightAware Approximate
Fri 09:18:00 PM -22.6713 -63.5720 341° North  Level FlightAware Approximate
Fri 09:19:00 PM -22.5536 -63.6155 341° North  Level FlightAware Approximate
Fri 09:20:00 PM -22.4358 -63.6589 341° North  Level FlightAware Approximate
Fri 09:21:00 PM -22.3181 -63.7023 341° North  Level FlightAware Approximate
Fri 09:22:00 PM -22.2003 -63.7456 341° North  Level FlightAware Approximate
Fri 09:23:00 PM -22.0826 -63.7888 341° North  Level FlightAware Approximate
Fri 09:24:00 PM -21.9648 -63.8319 341° North  Level FlightAware Approximate
Fri 09:25:00 PM -21.8470 -63.8750 341° North  Level FlightAware Approximate
Fri 09:26:00 PM -21.7292 -63.9180 341° North  Level FlightAware Approximate
Fri 09:27:00 PM -21.6114 -63.9609 341° North  Level FlightAware Approximate
Fri 09:28:00 PM -21.4936 -64.0038 341° North  Level FlightAware Approximate
Fri 09:29:00 PM -21.3758 -64.0466 341° North  Level FlightAware Approximate
Fri 09:30:00 PM -21.2579 -64.0893 341° North  Level FlightAware Approximate
Fri 09:31:00 PM -21.1401 -64.1320 341° North  Level FlightAware Approximate
Fri 09:32:00 PM -21.0222 -64.1746 341° North  Level FlightAware Approximate
Fri 09:33:00 PM -20.9044 -64.2171 341° North  Level FlightAware Approximate
Fri 09:34:00 PM -20.7865 -64.2595 341° North  Level FlightAware Approximate
Fri 09:35:00 PM -20.6686 -64.3019 341° North  Level FlightAware Approximate
Fri 09:36:00 PM -20.5507 -64.3442 341° North  Level FlightAware Approximate
Fri 09:37:00 PM -20.4328 -64.3865 341° North  Level FlightAware Approximate
Fri 09:38:00 PM -20.3149 -64.4287 341° North  Level FlightAware Approximate
Fri 09:39:00 PM -20.1969 -64.4708 341° North  Level FlightAware Approximate
Fri 09:40:00 PM -20.0790 -64.5129 341° North  Level FlightAware Approximate
Fri 09:41:00 PM -19.9610 -64.5549 341° North  Level FlightAware Approximate
Fri 09:42:00 PM -19.8431 -64.5968 342° North  Level FlightAware Approximate
Fri 09:43:00 PM -19.7251 -64.6387 342° North  Level FlightAware Approximate
Fri 09:44:00 PM -19.6071 -64.6805 342° North  Level FlightAware Approximate
Fri 09:45:00 PM -19.4891 -64.7223 342° North  Level FlightAware Approximate
Fri 09:46:00 PM -19.3711 -64.7639 342° North  Level FlightAware Approximate
Fri 09:47:00 PM -19.2531 -64.8056 342° North  Level FlightAware Approximate
Fri 09:48:00 PM -19.1351 -64.8472 342° North  Level FlightAware Approximate
Fri 09:49:00 PM -19.0171 -64.8887 342° North  Level FlightAware Approximate
Fri 09:50:00 PM -18.8990 -64.9301 342° North  Level FlightAware Approximate
Fri 09:51:00 PM -18.7810 -64.9715 342° North  Level FlightAware Approximate
Fri 09:52:00 PM -18.6629 -65.0128 342° North  Level FlightAware Approximate
Fri 09:53:00 PM -18.5449 -65.0541 342° North  Level FlightAware Approximate
Fri 09:54:00 PM -18.4268 -65.0954 342° North  Level FlightAware Approximate
Fri 09:55:00 PM -18.3087 -65.1365 342° North  Level FlightAware Approximate
Fri 09:56:00 PM -18.1906 -65.1776 342° North  Level FlightAware Approximate
Fri 09:57:00 PM -18.0725 -65.2187 342° North  Level FlightAware Approximate
Fri 09:58:00 PM -17.9544 -65.2597 342° North  Level FlightAware Approximate
Fri 09:59:00 PM -17.8363 -65.3006 342° North  Level FlightAware Approximate
Fri 10:00:00 PM -17.7181 -65.3415 342° North  Level FlightAware Approximate
Fri 10:01:00 PM -17.6000 -65.3823 342° North  Level FlightAware Approximate
Fri 10:02:00 PM -17.4819 -65.4231 342° North  Level FlightAware Approximate
Fri 10:03:00 PM -17.3637 -65.4639 342° North  Level FlightAware Approximate
Fri 10:04:00 PM -17.2456 -65.5045 342° North  Level FlightAware Approximate
Fri 10:05:00 PM -17.1274 -65.5452 342° North  Level FlightAware Approximate
Fri 10:06:00 PM -17.0092 -65.5857 342° North  Level FlightAware Approximate
Fri 10:07:00 PM -16.8910 -65.6263 342° North  Level FlightAware Approximate
Fri 10:08:00 PM -16.7728 -65.6667 342° North  Level FlightAware Approximate
Fri 10:09:00 PM -16.6546 -65.7072 342° North  Level FlightAware Approximate
Fri 10:10:00 PM -16.5364 -65.7475 342° North  Level FlightAware Approximate
Fri 10:11:00 PM -16.4182 -65.7878 342° North  Level FlightAware Approximate
Fri 10:12:00 PM -16.3000 -65.8281 342° North  Level FlightAware Approximate
Fri 10:13:00 PM -16.1817 -65.8683 342° North  Level FlightAware Approximate
Fri 10:14:00 PM -16.0635 -65.9085 342° North  Level FlightAware Approximate
Fri 10:15:00 PM -15.9453 -65.9486 342° North  Level FlightAware Approximate
Fri 10:16:00 PM -15.8270 -65.9887 342° North  Level FlightAware Approximate
Fri 10:17:00 PM -15.7087 -66.0288 342° North  Level FlightAware Approximate
Fri 10:18:00 PM -15.5905 -66.0688 342° North  Level FlightAware Approximate
Fri 10:19:00 PM -15.4722 -66.1087 342° North  Level FlightAware Approximate
Fri 10:20:00 PM -15.3539 -66.1486 342° North  Level FlightAware Approximate
Fri 10:21:00 PM -15.2352 -66.1886 342° North  Level FlightAware Approximate
Fri 10:22:00 PM -15.1165 -66.2285 342° North  Level FlightAware Approximate
Fri 10:23:00 PM -14.9978 -66.2684 342° North  Level FlightAware Approximate
Fri 10:24:00 PM -14.8791 -66.3083 342° North  Level FlightAware Approximate
Fri 10:25:00 PM -14.7604 -66.3481 342° North  Level FlightAware Approximate
Fri 10:26:00 PM -14.6417 -66.3879 342° North  Level FlightAware Approximate
Fri 10:27:00 PM -14.5229 -66.4276 342° North  Level FlightAware Approximate
Fri 10:28:00 PM -14.4042 -66.4673 342° North  Level FlightAware Approximate
Fri 10:29:00 PM -14.2854 -66.5069 342° North  Level FlightAware Approximate
Fri 10:30:00 PM -14.1667 -66.5465 342° North  Level FlightAware Approximate
Fri 10:31:00 PM -14.0479 -66.5861 342° North  Level FlightAware Approximate
Fri 10:32:00 PM -13.9292 -66.6256 342° North  Level FlightAware Approximate
Fri 10:33:00 PM -13.8104 -66.6650 342° North  Level FlightAware Approximate
Fri 10:34:00 PM -13.6916 -66.7045 342° North  Level FlightAware Approximate
Fri 10:35:00 PM -13.5728 -66.7439 342° North  Level FlightAware Approximate
Fri 10:36:00 PM -13.4540 -66.7832 342° North  Level FlightAware Approximate
Fri 10:37:00 PM -13.3352 -66.8225 342° North  Level FlightAware Approximate
Fri 10:38:00 PM -13.2164 -66.8618 342° North  Level FlightAware Approximate
Fri 10:39:00 PM -13.0976 -66.9010 342° North  Level FlightAware Approximate
Fri 10:40:00 PM -12.9788 -66.9402 342° North  Level FlightAware Approximate
Fri 10:41:00 PM -12.8600 -66.9794 342° North  Level FlightAware Approximate
Fri 10:42:00 PM -12.7412 -67.0185 342° North  Level FlightAware Approximate
Fri 10:43:00 PM -12.6223 -67.0576 342° North  Level FlightAware Approximate
Fri 10:44:00 PM -12.5035 -67.0967 342° North  Level FlightAware Approximate
Fri 10:45:00 PM -12.3847 -67.1357 342° North  Level FlightAware Approximate
Fri 10:46:00 PM -12.2658 -67.1747 342° North  Level FlightAware Approximate
Fri 10:47:00 PM -12.1469 -67.2136 342° North  Level FlightAware Approximate
Fri 10:48:00 PM -12.0281 -67.2525 342° North  Level FlightAware Approximate
Fri 10:49:00 PM -11.9092 -67.2914 342° North  Level FlightAware Approximate
Fri 10:50:00 PM -11.7903 -67.3302 342° North  Level FlightAware Approximate
Fri 10:51:00 PM -11.6715 -67.3690 342° North  Level FlightAware Approximate
Fri 10:52:00 PM -11.5526 -67.4078 342° North  Level FlightAware Approximate
Fri 10:53:00 PM -11.4337 -67.4466 342° North  Level FlightAware Approximate
Fri 10:54:00 PM -11.3148 -67.4853 342° North  Level FlightAware Approximate
Fri 10:55:00 PM -11.1959 -67.5240 342° North  Level FlightAware Approximate
Fri 10:56:00 PM -11.0770 -67.5626 342° North  Level FlightAware Approximate
Fri 10:57:00 PM -10.9581 -67.6012 342° North  Level FlightAware Approximate
Fri 10:58:00 PM -10.8392 -67.6398 342° North  Level FlightAware Approximate
Fri 10:59:00 PM -10.7203 -67.6784 342° North  Level FlightAware Approximate
Fri 11:00:00 PM -10.6013 -67.7169 342° North  Level FlightAware Approximate
Fri 11:01:00 PM -10.4824 -67.7554 342° North  Level FlightAware Approximate
Fri 11:02:00 PM -10.3635 -67.7938 342° North  Level FlightAware Approximate
Fri 11:03:00 PM -10.2446 -67.8323 342° North  Level FlightAware Approximate
Fri 11:04:00 PM -10.1256 -67.8707 342° North  Level FlightAware Approximate
Fri 11:05:00 PM -10.0067 -67.9090 342° North  Level FlightAware Approximate
Fri 11:06:00 PM -9.8877 -67.9474 342° North  Level FlightAware Approximate
Fri 11:07:00 PM -9.7688 -67.9857 342° North  Level FlightAware Approximate
Fri 11:08:00 PM -9.6498 -68.0240 342° North  Level FlightAware Approximate
Fri 11:09:00 PM -9.5309 -68.0623 342° North  Level FlightAware Approximate
Fri 11:10:00 PM -9.4119 -68.1005 342° North  Level FlightAware Approximate
Fri 11:11:00 PM -9.2929 -68.1387 342° North  Level FlightAware Approximate
Fri 11:12:00 PM -9.1740 -68.1769 342° North  Level FlightAware Approximate
Fri 11:13:00 PM -9.0550 -68.2151 342° North  Level FlightAware Approximate
Fri 11:14:00 PM -8.9360 -68.2532 342° North  Level FlightAware Approximate
Fri 11:15:00 PM -8.8170 -68.2913 342° North  Level FlightAware Approximate
Fri 11:16:00 PM -8.6980 -68.3294 342° North  Level FlightAware Approximate
Fri 11:17:00 PM -8.5790 -68.3675 342° North  Level FlightAware Approximate
Fri 11:18:00 PM -8.4600 -68.4055 342° North  Level FlightAware Approximate
Fri 11:19:00 PM -8.3410 -68.4435 342° North  Level FlightAware Approximate
Fri 11:20:00 PM -8.2220 -68.4815 342° North  Level FlightAware Approximate
Fri 11:21:00 PM -8.1030 -68.5195 342° North  Level FlightAware Approximate
Fri 11:22:00 PM -7.9840 -68.5574 342° North  Level FlightAware Approximate
Fri 11:23:00 PM -7.8650 -68.5954 342° North  Level FlightAware Approximate
Fri 11:24:00 PM -7.7460 -68.6333 342° North  Level FlightAware Approximate
Fri 11:25:00 PM -7.6269 -68.6712 342° North  Level FlightAware Approximate
Fri 11:26:00 PM -7.5079 -68.7090 342° North  Level FlightAware Approximate
Fri 11:27:00 PM -7.3889 -68.7468 343° North  Level FlightAware Approximate
Fri 11:28:00 PM -7.2699 -68.7847 343° North  Level FlightAware Approximate
Fri 11:29:00 PM -7.1508 -68.8225 343° North  Level FlightAware Approximate
Fri 11:30:00 PM -7.0318 -68.8603 343° North  Level FlightAware Approximate
Fri 11:31:00 PM -6.9128 -68.8980 343° North  Level FlightAware Approximate
Fri 11:32:00 PM -6.7937 -68.9358 343° North  Level FlightAware Approximate
Fri 11:33:00 PM -6.6747 -68.9735 343° North  Level FlightAware Approximate
Fri 11:34:00 PM -6.5556 -69.0112 343° North  Level FlightAware Approximate
Fri 11:35:00 PM -6.4366 -69.0489 343° North  Level FlightAware Approximate
Fri 11:36:00 PM -6.3175 -69.0865 343° North  Level FlightAware Approximate
Fri 11:37:00 PM -6.1985 -69.1242 343° North  Level FlightAware Approximate
Fri 11:38:00 PM -6.0794 -69.1618 343° North  Level FlightAware Approximate
Fri 11:39:00 PM -5.9597 -69.1996 343° North  Level FlightAware Approximate
Fri 11:40:00 PM -5.8401 -69.2374 343° North  Level FlightAware Approximate
Fri 11:41:00 PM -5.7204 -69.2752 343° North  Level FlightAware Approximate
Fri 11:42:00 PM -5.6007 -69.3130 343° North  Level FlightAware Approximate
Fri 11:43:00 PM -5.4810 -69.3507 343° North  Level FlightAware Approximate
Fri 11:44:00 PM -5.3613 -69.3885 343° North  Level FlightAware Approximate
Fri 11:45:00 PM -5.2417 -69.4262 343° North  Level FlightAware Approximate
Fri 11:46:00 PM -5.1220 -69.4639 343° North  Level FlightAware Approximate
Fri 11:47:00 PM -5.0023 -69.5016 343° North  Level FlightAware Approximate
Fri 11:48:00 PM -4.8826 -69.5392 343° North  Level FlightAware Approximate
Fri 11:49:00 PM -4.7629 -69.5769 343° North  Level FlightAware Approximate
Fri 11:50:00 PM -4.6432 -69.6145 343° North  Level FlightAware Approximate
Fri 11:51:00 PM -4.5235 -69.6522 343° North  Level FlightAware Approximate
Fri 11:52:00 PM -4.4038 -69.6898 343° North  Level FlightAware Approximate
Fri 11:53:00 PM -4.2841 -69.7274 343° North  Level FlightAware Approximate
Fri 11:54:00 PM -4.1644 -69.7650 343° North  Level FlightAware Approximate
Fri 11:55:00 PM -4.0447 -69.8026 343° North  Level FlightAware Approximate
Fri 11:56:00 PM -3.9250 -69.8402 343° North  Level FlightAware Approximate
Fri 11:57:00 PM -3.8053 -69.8777 343° North  Level FlightAware Approximate
Fri 11:58:00 PM -3.6855 -69.9153 343° North  Level FlightAware Approximate
Fri 11:59:00 PM -3.5658 -69.9529 343° North  Level FlightAware Approximate
Sat 12:00:00 AM -3.4461 -69.9904 343° North  Level FlightAware Approximate
Sat 12:01:00 AM -3.3264 -70.0279 343° North  Level FlightAware Approximate
Sat 12:02:00 AM -3.2067 -70.0654 343° North  Level FlightAware Approximate
Sat 12:03:00 AM -3.0870 -70.1030 343° North  Level FlightAware Approximate
Sat 12:04:00 AM -2.9673 -70.1404 343° North  Level FlightAware Approximate
Sat 12:05:00 AM -2.8475 -70.1779 343° North  Level FlightAware Approximate
Sat 12:06:00 AM -2.7278 -70.2154 343° North  Level FlightAware Approximate
Sat 12:07:00 AM -2.6081 -70.2529 343° North  Level FlightAware Approximate
Sat 12:08:00 AM -2.4884 -70.2904 343° North  Level FlightAware Approximate
Sat 12:09:00 AM -2.3686 -70.3278 343° North  Level FlightAware Approximate
Sat 12:10:00 AM -2.2489 -70.3653 343° North  Level FlightAware Approximate
Sat 12:11:00 AM -2.1292 -70.4027 343° North  Level FlightAware Approximate
Sat 12:12:00 AM -2.0094 -70.4402 343° North  Level FlightAware Approximate
Sat 12:13:00 AM -1.8897 -70.4776 343° North  Level FlightAware Approximate
Sat 12:14:00 AM -1.7700 -70.5151 343° North  Level FlightAware Approximate
Sat 12:15:00 AM -1.6503 -70.5525 343° North  Level FlightAware Approximate
Sat 12:16:00 AM -1.5305 -70.5899 343° North  Level FlightAware Approximate
Sat 12:17:00 AM -1.4108 -70.6273 343° North  Level FlightAware Approximate
Sat 12:18:00 AM -1.2911 -70.6647 343° North  Level FlightAware Approximate
Sat 12:19:00 AM -1.1713 -70.7021 343° North  Level FlightAware Approximate
Sat 12:20:00 AM -1.0516 -70.7396 343° North  Level FlightAware Approximate
Sat 12:21:00 AM -0.9319 -70.7770 343° North  Level FlightAware Approximate
Sat 12:22:00 AM -0.8122 -70.8144 343° North  Level FlightAware Approximate
Sat 12:23:00 AM -0.6924 -70.8518 343° North  Level FlightAware Approximate
Sat 12:24:00 AM -0.5727 -70.8892 343° North  Level FlightAware Approximate
Sat 12:25:00 AM -0.4529 -70.9266 343° North  Level FlightAware Approximate
Sat 12:26:00 AM -0.3332 -70.9640 343° North  Level FlightAware Approximate
Sat 12:27:00 AM -0.2135 -71.0014 343° North  Level FlightAware Approximate
Sat 12:28:00 AM -0.0937 -71.0388 343° North  Level FlightAware Approximate
Sat 12:29:00 AM 0.0260 -71.0761 343° North  Level FlightAware Approximate
Sat 12:30:00 AM 0.1458 -71.1135 343° North  Level FlightAware Approximate
Sat 12:31:00 AM 0.2655 -71.1509 343° North  Level FlightAware Approximate
Sat 12:32:00 AM 0.3852 -71.1883 343° North  Level FlightAware Approximate
Sat 12:33:00 AM 0.5050 -71.2257 343° North  Level FlightAware Approximate
Sat 12:34:00 AM 0.6247 -71.2631 343° North  Level FlightAware Approximate
Sat 12:35:00 AM 0.7445 -71.3005 343° North  Level FlightAware Approximate
Sat 12:36:00 AM 0.8642 -71.3379 343° North  Level FlightAware Approximate
Sat 12:37:00 AM 0.9839 -71.3753 343° North  Level FlightAware Approximate
Sat 12:38:00 AM 1.1036 -71.4128 343° North  Level FlightAware Approximate
Sat 12:39:00 AM 1.2234 -71.4502 343° North  Level FlightAware Approximate
Sat 12:40:00 AM 1.3431 -71.4876 343° North  Level FlightAware Approximate
Sat 12:41:00 AM 1.4628 -71.5250 343° North  Level FlightAware Approximate
Sat 12:42:00 AM 1.5826 -71.5624 343° North  Level FlightAware Approximate
Sat 12:43:00 AM 1.7023 -71.5998 343° North  Level FlightAware Approximate
Sat 12:44:00 AM 1.8220 -71.6373 343° North  Level FlightAware Approximate
Sat 12:45:00 AM 1.9418 -71.6747 343° North  Level FlightAware Approximate
Sat 12:46:00 AM 2.0615 -71.7121 343° North  Level FlightAware Approximate
Sat 12:47:00 AM 2.1812 -71.7496 343° North  Level FlightAware Approximate
Sat 12:48:00 AM 2.3010 -71.7870 343° North  Level FlightAware Approximate
Sat 12:49:00 AM 2.4207 -71.8245 343° North  Level FlightAware Approximate
Sat 12:50:00 AM 2.5404 -71.8620 343° North  Level FlightAware Approximate
Sat 12:51:00 AM 2.6607 -71.8996 343° North  Level FlightAware Approximate
Sat 12:52:00 AM 2.7811 -71.9373 343° North  Level FlightAware Approximate
Sat 12:53:00 AM 2.9014 -71.9750 343° North  Level FlightAware Approximate
Sat 12:54:00 AM 3.0218 -72.0127 343° North  Level FlightAware Approximate
Sat 12:55:00 AM 3.1421 -72.0504 343° North  Level FlightAware Approximate
Sat 12:56:00 AM 3.2624 -72.0881 343° North  Level FlightAware Approximate
Sat 12:57:00 AM 3.3828 -72.1258 343° North  Level FlightAware Approximate
Sat 12:58:00 AM 3.5031 -72.1635 343° North  Level FlightAware Approximate
Sat 12:59:00 AM 3.6234 -72.2012 343° North  Level FlightAware Approximate
Sat 01:00:00 AM 3.7438 -72.2390 343° North  Level FlightAware Approximate
Sat 01:01:00 AM 3.8641 -72.2767 343° North  Level FlightAware Approximate
Sat 01:02:00 AM 3.9844 -72.3145 343° North  Level FlightAware Approximate
Sat 01:03:00 AM 4.1047 -72.3522 343° North  Level FlightAware Approximate
Sat 01:04:00 AM 4.2250 -72.3900 343° North  Level FlightAware Approximate
Sat 01:05:00 AM 4.3453 -72.4278 343° North  Level FlightAware Approximate
Sat 01:06:00 AM 4.4657 -72.4657 343° North  Level FlightAware Approximate
Sat 01:07:00 AM 4.5860 -72.5035 343° North  Level FlightAware Approximate
Sat 01:08:00 AM 4.7063 -72.5413 343° North  Level FlightAware Approximate
Sat 01:09:00 AM 4.8266 -72.5792 343° North  Level FlightAware Approximate
Sat 01:10:00 AM 4.9469 -72.6170 343° North  Level FlightAware Approximate
Sat 01:11:00 AM 5.0672 -72.6549 343° North  Level FlightAware Approximate
Sat 01:12:00 AM 5.1875 -72.6928 343° North  Level FlightAware Approximate
Sat 01:13:00 AM 5.3078 -72.7307 343° North  Level FlightAware Approximate
Sat 01:14:00 AM 5.4281 -72.7686 343° North  Level FlightAware Approximate
Sat 01:15:00 AM 5.5484 -72.8065 343° North  Level FlightAware Approximate
Sat 01:16:00 AM 5.6688 -72.8444 343° North  Level FlightAware Approximate
Sat 01:17:00 AM 5.7892 -72.8820 343° North  Level FlightAware Approximate
Sat 01:18:00 AM 5.9096 -72.9197 343° North  Level FlightAware Approximate
Sat 01:19:00 AM 6.0300 -72.9573 343° North  Level FlightAware Approximate
Sat 01:20:00 AM 6.1504 -72.9949 343° North  Level FlightAware Approximate
Sat 01:21:00 AM 6.2708 -73.0326 343° North  Level FlightAware Approximate
Sat 01:22:00 AM 6.3912 -73.0702 343° North  Level FlightAware Approximate
Sat 01:23:00 AM 6.5116 -73.1079 343° North  Level FlightAware Approximate
Sat 01:24:00 AM 6.6320 -73.1456 343° North  Level FlightAware Approximate
Sat 01:25:00 AM 6.7524 -73.1833 343° North  Level FlightAware Approximate
Sat 01:26:00 AM 6.8727 -73.2211 343° North  Level FlightAware Approximate
Sat 01:27:00 AM 6.9931 -73.2588 343° North  Level FlightAware Approximate
Sat 01:28:00 AM 7.1135 -73.2966 343° North  Level FlightAware Approximate
Sat 01:29:00 AM 7.2339 -73.3344 343° North  Level FlightAware Approximate
Sat 01:30:00 AM 7.3543 -73.3722 343° North  Level FlightAware Approximate
Sat 01:31:00 AM 7.4746 -73.4101 343° North  Level FlightAware Approximate
Sat 01:32:00 AM 7.5950 -73.4479 343° North  Level FlightAware Approximate
Sat 01:33:00 AM 7.7154 -73.4858 343° North  Level FlightAware Approximate
Sat 01:34:00 AM 7.8357 -73.5237 343° North  Level FlightAware Approximate
Sat 01:35:00 AM 7.9561 -73.5617 343° North  Level FlightAware Approximate
Sat 01:36:00 AM 8.0764 -73.5996 343° North  Level FlightAware Approximate
Sat 01:37:00 AM 8.1968 -73.6377 342° North  Level FlightAware Approximate
Sat 01:38:00 AM 8.3169 -73.6764 342° North  Level FlightAware Approximate
Sat 01:39:00 AM 8.4370 -73.7151 342° North  Level FlightAware Approximate
Sat 01:40:00 AM 8.5571 -73.7538 342° North  Level FlightAware Approximate
Sat 01:41:00 AM 8.6772 -73.7926 342° North  Level FlightAware Approximate
Sat 01:42:00 AM 8.7974 -73.8314 342° North  Level FlightAware Approximate
Sat 01:43:00 AM 8.9175 -73.8702 342° North  Level FlightAware Approximate
Sat 01:44:00 AM 9.0376 -73.9090 342° North  Level FlightAware Approximate
Sat 01:45:00 AM 9.1577 -73.9479 342° North  Level FlightAware Approximate
Sat 01:46:00 AM 9.2778 -73.9868 342° North  Level FlightAware Approximate
Sat 01:47:00 AM 9.3979 -74.0257 342° North  Level FlightAware Approximate
Sat 01:48:00 AM 9.5180 -74.0647 342° North  Level FlightAware Approximate
Sat 01:49:00 AM 9.6380 -74.1036 342° North  Level FlightAware Approximate
Sat 01:50:00 AM 9.7581 -74.1426 342° North  Level FlightAware Approximate
Sat 01:51:00 AM 9.8782 -74.1817 342° North  Level FlightAware Approximate
Sat 01:52:00 AM 9.9983 -74.2205 342° North  Level FlightAware Approximate
Sat 01:53:00 AM 10.1185 -74.2593 342° North  Level FlightAware Approximate
Sat 01:54:00 AM 10.2386 -74.2981 342° North  Level FlightAware Approximate
Sat 01:55:00 AM 10.3588 -74.3370 342° North  Level FlightAware Approximate
Sat 01:56:00 AM 10.4789 -74.3759 342° North  Level FlightAware Approximate
Sat 01:57:00 AM 10.5990 -74.4148 342° North  Level FlightAware Approximate
Sat 01:58:00 AM 10.7192 -74.4538 342° North  Level FlightAware Approximate
Sat 01:59:00 AM 10.8393 -74.4928 342° North  Level FlightAware Approximate
Sat 02:00:00 AM 10.9594 -74.5318 342° North  Level FlightAware Approximate
Sat 02:01:00 AM 11.0795 -74.5709 342° North  Level FlightAware Approximate
Sat 02:02:00 AM 11.1996 -74.6100 342° North  Level FlightAware Approximate
Sat 02:03:00 AM 11.3197 -74.6491 342° North  Level FlightAware Approximate
Sat 02:04:00 AM 11.4398 -74.6882 342° North  Level FlightAware Approximate
Sat 02:05:00 AM 11.5599 -74.7274 342° North  Level FlightAware Approximate
Sat 02:06:00 AM 11.6800 -74.7667 342° North  Level FlightAware Approximate
Sat 02:07:00 AM 11.8001 -74.8059 342° North  Level FlightAware Approximate
Sat 02:08:00 AM 11.9206 -74.8454 342° North  Level FlightAware Approximate
Sat 02:09:00 AM 12.0411 -74.8848 342° North  Level FlightAware Approximate
Sat 02:10:00 AM 12.1615 -74.9243 342° North  Level FlightAware Approximate
Sat 02:11:00 AM 12.2820 -74.9638 342° North  Level FlightAware Approximate
Sat 02:12:00 AM 12.4025 -75.0034 342° North  Level FlightAware Approximate
Sat 02:13:00 AM 12.5230 -75.0430 342° North  Level FlightAware Approximate
Sat 02:14:00 AM 12.6434 -75.0827 342° North  Level FlightAware Approximate
Sat 02:15:00 AM 12.7639 -75.1223 342° North  Level FlightAware Approximate
Sat 02:16:00 AM 12.8843 -75.1621 342° North  Level FlightAware Approximate
Sat 02:17:00 AM 13.0047 -75.2018 342° North  Level FlightAware Approximate
Sat 02:18:00 AM 13.1252 -75.2416 342° North  Level FlightAware Approximate
Sat 02:19:00 AM 13.2456 -75.2814 342° North  Level FlightAware Approximate
Sat 02:20:00 AM 13.3660 -75.3213 342° North  Level FlightAware Approximate
Sat 02:21:00 AM 13.4864 -75.3612 342° North  Level FlightAware Approximate
Sat 02:22:00 AM 13.6068 -75.4012 342° North  Level FlightAware Approximate
Sat 02:23:00 AM 13.7272 -75.4412 342° North  Level FlightAware Approximate
Sat 02:24:00 AM 13.8476 -75.4812 342° North  Level FlightAware Approximate
Sat 02:25:00 AM 13.9680 -75.5213 342° North  Level FlightAware Approximate
Sat 02:26:00 AM 14.0884 -75.5614 342° North  Level FlightAware Approximate
Sat 02:27:00 AM 14.2088 -75.6015 342° North  Level FlightAware Approximate
Sat 02:28:00 AM 14.3291 -75.6417 342° North  Level FlightAware Approximate
Sat 02:29:00 AM 14.4495 -75.6820 342° North  Level FlightAware Approximate
Sat 02:30:00 AM 14.5698 -75.7223 342° North  Level FlightAware Approximate
Sat 02:31:00 AM 14.6902 -75.7626 342° North  Level FlightAware Approximate
Sat 02:32:00 AM 14.8105 -75.8030 342° North  Level FlightAware Approximate
Sat 02:33:00 AM 14.9309 -75.8434 342° North  Level FlightAware Approximate
Sat 02:34:00 AM 15.0513 -75.8837 342° North  Level FlightAware Approximate
Sat 02:35:00 AM 15.1717 -75.9238 342° North  Level FlightAware Approximate
Sat 02:36:00 AM 15.2922 -75.9640 342° North  Level FlightAware Approximate
Sat 02:37:00 AM 15.4126 -76.0042 342° North  Level FlightAware Approximate
Sat 02:38:00 AM 15.5330 -76.0444 342° North  Level FlightAware Approximate
Sat 02:39:00 AM 15.6534 -76.0847 342° North  Level FlightAware Approximate
Sat 02:40:00 AM 15.7739 -76.1251 342° North  Level FlightAware Approximate
Sat 02:41:00 AM 15.8942 -76.1655 342° North  Level FlightAware Approximate
Sat 02:42:00 AM 16.0146 -76.2059 342° North  Level FlightAware Approximate
Sat 02:43:00 AM 16.1350 -76.2464 342° North  Level FlightAware Approximate
Sat 02:44:00 AM 16.2554 -76.2869 342° North  Level FlightAware Approximate
Sat 02:45:00 AM 16.3758 -76.3275 342° North  Level FlightAware Approximate
Sat 02:46:00 AM 16.4961 -76.3682 342° North  Level FlightAware Approximate
Sat 02:47:00 AM 16.6165 -76.4089 342° North  Level FlightAware Approximate
Sat 02:48:00 AM 16.7369 -76.4496 342° North  Level FlightAware Approximate
Sat 02:49:00 AM 16.8572 -76.4904 342° North  Level FlightAware Approximate
Sat 02:50:00 AM 16.9775 -76.5312 342° North  Level FlightAware Approximate
Sat 02:51:00 AM 17.0978 -76.5721 342° North  Level FlightAware Approximate
Sat 02:52:00 AM 17.2182 -76.6131 342° North  Level FlightAware Approximate
Sat 02:53:00 AM 17.3385 -76.6541 342° North  Level FlightAware Approximate
Sat 02:54:00 AM 17.4588 -76.6951 342° North  Level FlightAware Approximate
Sat 02:55:00 AM 17.5791 -76.7362 342° North  Level FlightAware Approximate
Sat 02:56:00 AM 17.6993 -76.7774 342° North  Level FlightAware Approximate
Sat 02:57:00 AM 17.8196 -76.8186 342° North  Level FlightAware Approximate
Sat 02:58:00 AM 17.9399 -76.8599 342° North  Level FlightAware Approximate
Sat 02:59:00 AM 18.0601 -76.9012 342° North  Level FlightAware Approximate
Sat 03:00:00 AM 18.1804 -76.9426 342° North  Level FlightAware Approximate
Sat 03:01:00 AM 18.3006 -76.9840 342° North  Level FlightAware Approximate
Sat 03:02:00 AM 18.4209 -77.0255 342° North  Level FlightAware Approximate
Sat 03:03:00 AM 18.5411 -77.0671 342° North  Level FlightAware Approximate
Sat 03:04:00 AM 18.6613 -77.1087 342° North  Level FlightAware Approximate
Sat 03:05:00 AM 18.7815 -77.1504 342° North  Level FlightAware Approximate
Sat 03:06:00 AM 18.9017 -77.1921 342° North  Level FlightAware Approximate
Sat 03:07:00 AM 19.0219 -77.2339 342° North  Level FlightAware Approximate
Sat 03:08:00 AM 19.1420 -77.2758 342° North  Level FlightAware Approximate
Sat 03:09:00 AM 19.2622 -77.3177 342° North  Level FlightAware Approximate
Sat 03:10:00 AM 19.3824 -77.3597 342° North  Level FlightAware Approximate
Sat 03:11:00 AM 19.5024 -77.4020 341° North  Level FlightAware Approximate
Sat 03:12:00 AM 19.6223 -77.4449 341° North  Level FlightAware Approximate
Sat 03:13:00 AM 19.7422 -77.4879 341° North  Level FlightAware Approximate
Sat 03:14:00 AM 19.8620 -77.5309 341° North  Level FlightAware Approximate
Sat 03:15:00 AM 19.9819 -77.5740 341° North  Level FlightAware Approximate
Sat 03:16:00 AM 20.1017 -77.6171 341° North  Level FlightAware Approximate
Sat 03:17:00 AM 20.2216 -77.6603 341° North  Level FlightAware Approximate
Sat 03:18:00 AM 20.3414 -77.7036 341° North  Level FlightAware Approximate
Sat 03:19:00 AM 20.4612 -77.7470 341° North  Level FlightAware Approximate
Sat 03:20:00 AM 20.5810 -77.7904 341° North  Level FlightAware Approximate
Sat 03:21:00 AM 20.7008 -77.8339 341° North  Level FlightAware Approximate
Sat 03:22:00 AM 20.8206 -77.8774 341° North  Level FlightAware Approximate
Sat 03:23:00 AM 20.9404 -77.9210 341° North  Level FlightAware Approximate
Sat 03:24:00 AM 21.0601 -77.9647 341° North  Level FlightAware Approximate
Sat 03:25:00 AM 21.1799 -78.0085 341° North  Level FlightAware Approximate
Sat 03:26:00 AM 21.2996 -78.0523 341° North  Level FlightAware Approximate
Sat 03:27:00 AM 21.4194 -78.0962 341° North  Level FlightAware Approximate
Sat 03:28:00 AM 21.5391 -78.1402 341° North  Level FlightAware Approximate
Sat 03:29:00 AM 21.6588 -78.1842 341° North  Level FlightAware Approximate
Sat 03:30:00 AM 21.7785 -78.2284 341° North  Level FlightAware Approximate
Sat 03:31:00 AM 21.8981 -78.2726 341° North  Level FlightAware Approximate
Sat 03:32:00 AM 22.0178 -78.3168 341° North  Level FlightAware Approximate
Sat 03:33:00 AM 22.1375 -78.3612 341° North  Level FlightAware Approximate
Sat 03:33:38 AM 23.2469 -78.1864 343° North 455 524 36,000  Level Miami Center
Sat 03:34:00 AM 22.2571 -78.4056 341° North  Level FlightAware Approximate
Sat 03:34:37 AM 23.3636 -78.2281 342° North 448 516 36,000  Level Miami Center
Sat 03:35:00 AM 22.3768 -78.4501 341° North  Level FlightAware Approximate
Sat 03:35:39 AM 23.4864 -78.2772 340° North 454 522 36,000  Level Miami Center
Sat 03:36:00 AM 22.4964 -78.4947 341° North  Level FlightAware Approximate
Sat 03:36:40 AM 23.6031 -78.3100 346° North 447 514 36,000  Level Miami Center
Sat 03:37:00 AM 22.6162 -78.5387 343° North  Level FlightAware Approximate
Sat 03:37:37 AM 23.7239 -78.3569 340° North 447 514 36,000  Level Miami Center
Sat 03:38:00 AM 22.7371 -78.5790 343° North  Level FlightAware Approximate
Sat 03:38:38 AM 23.8403 -78.4014 341° North 439 505 36,000  Level Miami Center
Sat 03:39:37 AM 23.9631 -78.4483 341° North 450 518 36,000  Level Miami Center
Sat 03:40:37 AM 24.0797 -78.5000 338° Northwest 450 518 36,000  Level Miami Center
Sat 03:41:39 AM 24.1939 -78.5539 337° Northwest 450 518 36,000  Level Miami Center
Sat 03:42:40 AM 24.3103 -78.6078 337° Northwest 450 518 36,000  Level Miami Center
Sat 03:43:37 AM 24.4225 -78.6594 337° Northwest 450 518 36,000  Level Miami Center
Sat 03:44:37 AM 24.5411 -78.7161 337° Northwest 450 518 36,000  Level Miami Center
Sat 03:45:39 AM 24.6553 -78.7703 337° Northwest 455 524 36,000  Level Miami Center
Sat 03:46:37 AM 24.7819 -78.8294 337° Northwest 455 524 36,000  Level Miami Center
Sat 03:47:37 AM 24.8961 -78.8864 336° Northwest 450 518 36,000  Level Miami Center
Sat 03:48:37 AM 24.9894 -78.9314 336° Northwest 450 518 36,000  Level Miami Center
Sat 03:49:40 AM 25.1308 -78.9911 339° North 455 524 36,000  Level Miami Center
Sat 03:50:37 AM 25.2428 -79.0483 335° Northwest 450 518 36,000  Level Miami Center
Sat 03:51:37 AM 25.3569 -79.1008 337° Northwest 443 510 36,000  Level Miami Center
Sat 03:52:37 AM 25.4750 -79.1583 336° Northwest 443 510 36,000  Level Miami Center
Sat 03:53:37 AM 25.5914 -79.2136 337° Northwest 448 516 36,000  Level Miami Center
Sat 03:54:39 AM 25.7075 -79.2689 337° Northwest 448 516 36,000  Level Miami Center
Sat 03:55:38 AM 25.8067 -79.3217 334° Northwest 443 510 36,000  Level Miami Center
Sat 03:56:37 AM 25.9353 -79.3819 337° Northwest 443 510 36,000  Level Miami Center
Sat 03:57:37 AM 26.0514 -79.4353 338° Northwest 443 510 36,000  Level Miami Center
Sat 03:58:37 AM 26.1714 -79.4936 336° Northwest 454 522 36,000  Level Miami Center
Sat 03:59:40 AM 26.2708 -79.5467 334° Northwest 454 522 36,000  Level Miami Center
Sat 04:00:37 AM 26.3992 -79.6100 336° Northwest 454 522 36,000  Level Miami Center
Sat 04:01:38 AM 26.5047 -79.6589 337° Northwest 454 522 36,000  Level Miami Center
Sat 04:02:39 AM 26.6308 -79.7222 336° Northwest 454 522 36,000  Level Miami Center
Sat 04:03:38 AM 26.7344 -79.7736 336° Northwest 454 522 36,000  Level Miami Center
Sat 04:04:37 AM 26.8583 -79.8325 337° Northwest 448 516 36,000  Level Miami Center
Sat 04:05:37 AM 26.9742 -79.8914 336° Northwest 453 521 36,000  Level Miami Center
Sat 04:06:40 AM 27.0775 -79.9453 335° Northwest 453 521 36,000  Level Miami Center
Sat 04:07:37 AM 27.1911 -80.0022 336° Northwest 453 521 36,000  Level Miami Center
Sat 04:08:37 AM 27.3067 -80.0592 336° Northwest 453 521 36,000  Level Miami Center
Sat 04:09:37 AM 27.4225 -80.1161 336° Northwest 453 521 36,000  Level Miami Center
Sat 04:10:39 AM 27.5361 -80.1731 336° Northwest 453 521 36,000  Level Miami Center
Sat 04:11:37 AM 27.6494 -80.2303 336° Northwest 453 521 36,000  Level Miami Center
Sat 04:12:37 AM 27.7650 -80.2900 335° Northwest 453 521 36,000  Level Miami Center
Sat 04:13:37 AM 27.8931 -80.3503 337° Northwest 458 527 36,000  Level Miami Center
Sat 04:14:38 AM 28.0083 -80.4081 336° Northwest 458 527 36,000  Level Miami Center
Sat 04:15:37 AM 28.1114 -80.4631 335° Northwest 458 527 36,000  Level Miami Center
Sat 04:16:37 AM 28.2392 -80.5236 337° Northwest 458 527 36,000  Level Miami Center
Sat 04:17:37 AM 28.3567 -80.5839 336° Northwest 458 527 36,000  Level Miami Center
Sat 04:19:22 AM 28.5461 -80.6853 335° Northwest 467 537 36,000  Level Jacksonville Center
Sat 04:20:22 AM 28.6747 -80.7486 337° Northwest 462 532 36,000  Level Jacksonville Center
Sat 04:21:22 AM 28.7903 -80.8103 335° Northwest 462 532 36,000  Level Jacksonville Center
Sat 04:22:22 AM 28.9061 -80.8694 336° Northwest 462 532 36,000  Level Jacksonville Center
Sat 04:23:22 AM 29.0219 -80.9289 336° Northwest 448 516 36,000  Level Jacksonville Center
Sat 04:24:22 AM 29.1375 -80.9861 337° Northwest 448 516 36,000  Level Jacksonville Center
Sat 04:25:22 AM 29.2533 -81.0481 335° Northwest 448 516 36,000  Level Jacksonville Center
Sat 04:26:22 AM 29.3689 -81.1053 337° Northwest 454 522 36,000  Level Jacksonville Center
Sat 04:27:22 AM 29.4678 -81.1608 334° Northwest 444 511 36,000  Level Jacksonville Center
Sat 04:28:22 AM 29.5833 -81.2208 336° Northwest 444 511 36,000  Level Jacksonville Center
Sat 04:29:22 AM 29.6989 -81.2811 336° Northwest 444 511 36,000  Level Jacksonville Center
Sat 04:30:22 AM 29.8125 -81.3414 335° Northwest 444 511 36,000  Level Jacksonville Center
Sat 04:31:22 AM 29.9258 -81.3994 336° Northwest 444 511 36,000  Level Jacksonville Center
Sat 04:32:22 AM 30.0539 -81.4672 335° Northwest 444 511 36,000  Level Jacksonville Center
Sat 04:33:22 AM 30.1694 -81.5278 336° Northwest 444 511 36,000  Level Jacksonville Center
Sat 04:34:22 AM 30.2850 -81.5864 336° Northwest 444 511 36,000  Level Jacksonville Center
Sat 04:35:22 AM 30.4025 -81.6497 335° Northwest 450 518 36,000  Level Jacksonville Center
Sat 04:36:22 AM 30.5178 -81.7133 335° Northwest 450 518 36,000  Level Jacksonville Center
Sat 04:37:22 AM 30.6333 -81.7722 336° Northwest 450 518 36,000  Level Jacksonville Center
Sat 04:38:22 AM 30.7486 -81.8386 334° Northwest 450 518 36,000  Level Jacksonville Center
Sat 04:39:22 AM 30.8619 -81.8978 336° Northwest 445 512 36,000  Level Jacksonville Center
Sat 04:40:22 AM 30.9772 -81.9597 335° Northwest 445 512 36,000  Level Jacksonville Center
Sat 04:41:22 AM 31.0903 -82.0242 334° Northwest 445 512 36,000  Level Jacksonville Center
Sat 04:42:22 AM 31.2036 -82.0861 335° Northwest 445 512 36,000  Level Jacksonville Center
Sat 04:44:33 AM 31.4533 -82.2156 336° Northwest 444 511 36,000  Level Atlanta Center
Sat 04:45:33 AM 31.5669 -82.2792 334° Northwest 444 511 36,000  Level Atlanta Center
Sat 04:46:33 AM 31.6806 -82.3403 335° Northwest 444 511 36,000  Level Atlanta Center
Sat 04:47:33 AM 31.7922 -82.4042 334° Northwest 444 511 36,000  Level Atlanta Center
Sat 04:48:33 AM 31.9036 -82.4658 335° Northwest 444 511 36,000  Level Atlanta Center
Sat 04:49:33 AM 32.0128 -82.5250 335° Northwest 444 511 36,000  Level Atlanta Center
Sat 04:50:33 AM 32.1264 -82.5869 335° Northwest 444 511 36,000 -50 Level Atlanta Center
Sat 04:51:33 AM 32.2375 -82.6489 335° Northwest 444 511 35,900 -750 Descending Atlanta Center
Sat 04:52:33 AM 32.3469 -82.7111 334° Northwest 444 511 34,500 -1,400 Descending Atlanta Center
Sat 04:53:33 AM 32.4622 -82.7736 335° Northwest 444 511 33,100 -1,350 Descending Atlanta Center
Sat 04:54:33 AM 32.5756 -82.8383 334° Northwest 444 511 31,800 -1,250 Descending Atlanta Center
Sat 04:55:33 AM 32.6911 -82.9036 335° Northwest 449 517 30,600 -1,600 Descending Atlanta Center
Sat 04:56:33 AM 32.8064 -82.9686 335° Northwest 456 525 28,600 -1,300 Descending Atlanta Center
Sat 04:57:33 AM 32.9175 -83.0292 335° Northwest 442 509 28,000 -400 Descending Atlanta Center
Sat 04:58:33 AM 32.9872 -83.1300 310° West 395 455 27,800 -850 Descending Atlanta Center
Sat 04:59:33 AM 32.9986 -83.2461 277° West 346 398 26,300 -2,050 Descending Atlanta Center
Sat 05:00:33 AM 33.0117 -83.3675 277° West 351 404 23,700 -2,800 Descending Atlanta Center
Sat 05:01:33 AM 33.0478 -83.4739 292° West 358 412 20,700 -3,400 Descending Atlanta Center
Sat 05:02:33 AM 33.0961 -83.5778 299° West 358 412 16,900 -3,500 Descending Atlanta Center
Sat 05:03:33 AM 33.1467 -83.6742 302° West 353 406 13,700 -2,450 Descending Atlanta Center
Sat 05:04:33 AM 33.1908 -83.7633 301° West 333 383 12,000 -950 Descending Atlanta Center
Sat 05:05:33 AM 33.2389 -83.8475 304° West 328 377 11,800 -650 Descending Atlanta Center
Sat 05:06:33 AM 33.2994 -83.9169 316° Northwest 304 350 10,700 -1,300 Descending Atlanta Center
Sat 05:07:33 AM 33.3642 -83.9617 330° Northwest 283 326 9,200 -1,500 Descending Atlanta Center
Sat 05:08:33 AM 33.4331 -84.0064 332° Northwest 276 318 7,700 -1,400 Descending Atlanta Center
Sat 05:09:33 AM 33.4917 -84.0489 329° Northwest 276 318 6,400 -1,200 Descending Atlanta Center
Sat 05:10:33 AM 33.5500 -84.0861 332° Northwest 259 298 5,300 -1,180 Descending Atlanta Center
Sat 05:11:35 AM 33.6167 -84.1333 329° Northwest 216 249 4,000 -639 Descending Atlanta TRACON
Sat 05:12:35 AM 33.6333 -84.1833 292° West 184 212 4,000 -50 Level Atlanta TRACON
Sat 05:13:35 AM 33.6333 -84.2500 270° West 184 212 3,900 -550 Descending Atlanta TRACON
Sat 05:14:35 AM 33.6333 -84.3000 270° West 182 209 2,900 -947 Descending Atlanta TRACON
Sat 05:15:29 AM 33.6333 -84.3500 270° West 148 170 2,100 -842 Descending Atlanta TRACON
Sat 05:16:29 AM 33.6333 -84.4000 270° West 148 170 1,300 -800 Descending Atlanta TRACON

Login

Don't have an account? Register now (free) for customized features, flight alerts, and more!